createdAt,value
2019-02-23T00:01:13.173Z,7.70
2019-02-23T00:03:42.275Z,8.00
2019-02-23T00:06:10.172Z,7.40
2019-02-23T00:08:39.865Z,7.70
2019-02-23T00:11:07.760Z,7.70
2019-02-23T00:13:35.553Z,8.00
2019-02-23T00:16:03.476Z,8.10
2019-02-23T00:18:31.546Z,8.30
2019-02-23T00:21:02.591Z,7.80
2019-02-23T00:23:31.780Z,8.10
2019-02-23T00:25:59.762Z,7.90
2019-02-23T00:28:27.759Z,8.00
2019-02-23T00:30:55.549Z,7.70
2019-02-23T00:33:23.479Z,8.10
2019-02-23T00:35:51.407Z,8.00
2019-02-23T00:38:19.329Z,7.90
2019-02-23T00:40:49.035Z,7.90
2019-02-23T00:43:16.809Z,7.70
2019-02-23T00:45:44.590Z,8.00
2019-02-23T00:48:12.558Z,7.90
2019-02-23T00:50:59.797Z,8.00
2019-02-23T00:53:27.737Z,7.90
2019-02-23T00:55:55.619Z,7.70
2019-02-23T00:58:23.407Z,7.70
2019-02-23T01:00:51.356Z,7.80
2019-02-23T01:03:19.148Z,8.00
2019-02-23T01:05:47.036Z,7.40
2019-02-23T01:08:14.961Z,7.80
2019-02-23T01:10:44.532Z,7.50
2019-02-23T01:13:12.400Z,7.60
2019-02-23T01:15:40.322Z,7.50
2019-02-23T01:18:08.091Z,8.00
2019-02-23T01:20:36.057Z,8.00
2019-02-23T01:23:04.110Z,7.80
2019-02-23T01:25:31.870Z,8.10
2019-02-23T01:27:59.780Z,7.70
2019-02-23T01:30:27.551Z,8.00
2019-02-23T01:32:55.517Z,7.70
2019-02-23T01:35:23.510Z,7.60
2019-02-23T01:37:51.467Z,7.70
2019-02-23T01:40:19.437Z,8.10
2019-02-23T01:42:47.217Z,8.00
2019-02-23T01:45:15.195Z,7.70
2019-02-23T01:47:43.161Z,8.10
2019-02-23T01:50:10.939Z,8.00
2019-02-23T01:52:39.103Z,7.70
2019-02-23T01:55:08.178Z,7.90
2019-02-23T01:57:36.074Z,7.70
2019-02-23T02:00:07.424Z,7.40
2019-02-23T02:02:35.306Z,7.60
2019-02-23T02:05:03.837Z,7.70
2019-02-23T02:07:31.631Z,7.90
2019-02-23T02:09:59.624Z,7.70
2019-02-23T02:12:27.615Z,7.70
2019-02-23T02:14:55.682Z,7.50
2019-02-23T02:17:23.452Z,7.60
2019-02-23T02:19:51.237Z,7.60
2019-02-23T02:22:19.191Z,7.30
2019-02-23T02:24:47.157Z,7.10
2019-02-23T02:27:14.922Z,7.40
2019-02-23T02:29:44.496Z,7.50
2019-02-23T02:32:12.414Z,7.60
2019-02-23T02:34:40.186Z,7.30
2019-02-23T02:37:07.994Z,7.20
2019-02-23T02:39:35.923Z,7.00
2019-02-23T02:42:03.703Z,7.10
2019-02-23T02:44:31.463Z,7.10
2019-02-23T02:46:59.437Z,7.40
2019-02-23T02:49:29.138Z,7.40
2019-02-23T02:51:56.914Z,7.50
2019-02-23T02:54:24.896Z,7.10
2019-02-23T02:56:52.667Z,7.10
2019-02-23T02:59:20.433Z,7.10
2019-02-23T03:01:49.509Z,7.10
2019-02-23T03:04:17.311Z,6.80
2019-02-23T03:06:45.282Z,7.00
2019-02-23T03:09:13.054Z,7.00
2019-02-23T03:11:40.843Z,7.10
2019-02-23T03:14:08.788Z,7.20
2019-02-23T03:16:36.672Z,7.20
2019-02-23T03:19:04.644Z,7.00
2019-02-23T03:21:32.606Z,7.30
2019-02-23T03:24:00.482Z,7.00
2019-02-23T03:26:28.302Z,7.10
2019-02-23T03:28:56.177Z,7.10
2019-02-23T03:31:24.298Z,7.30
2019-02-23T03:33:52.072Z,7.00
2019-02-23T03:36:19.853Z,7.20
2019-02-23T03:38:47.911Z,6.90
2019-02-23T03:41:17.681Z,6.80
2019-02-23T03:43:45.474Z,6.90
2019-02-23T03:46:13.470Z,6.90
2019-02-23T03:48:43.331Z,7.10
2019-02-23T03:51:11.468Z,7.20
2019-02-23T03:53:39.369Z,6.90
2019-02-23T03:56:07.322Z,7.00
2019-02-23T03:58:35.481Z,7.00
2019-02-23T04:01:03.526Z,7.00
2019-02-23T04:03:31.340Z,6.80
2019-02-23T04:05:59.301Z,6.80
2019-02-23T04:08:27.158Z,6.90
2019-02-23T04:10:55.147Z,6.90
2019-02-23T04:13:23.070Z,6.50
2019-02-23T04:15:51.208Z,6.70
2019-02-23T04:18:19.199Z,6.50
2019-02-23T04:20:47.076Z,6.50
2019-02-23T04:23:15.126Z,6.90
2019-02-23T04:25:42.939Z,6.70
2019-02-23T04:28:10.965Z,6.60
2019-02-23T04:30:38.851Z,6.70
2019-02-23T04:33:06.916Z,6.60
2019-02-23T04:35:34.740Z,6.50
2019-02-23T04:38:02.579Z,6.50
2019-02-23T04:40:30.541Z,6.30
2019-02-23T04:42:58.495Z,6.40
2019-02-23T04:45:27.518Z,6.60
2019-02-23T04:47:55.327Z,6.60
2019-02-23T04:50:23.347Z,6.60
2019-02-23T04:52:51.120Z,6.60
2019-02-23T04:55:18.906Z,6.60
2019-02-23T04:57:46.847Z,6.80
2019-02-23T05:00:16.569Z,6.60
2019-02-23T05:02:44.334Z,6.30
2019-02-23T05:05:14.046Z,6.40
2019-02-23T05:07:41.820Z,6.50
2019-02-23T05:10:09.912Z,6.40
2019-02-23T05:12:37.681Z,6.40
2019-02-23T05:15:07.005Z,6.50
2019-02-23T05:17:35.149Z,6.30
2019-02-23T05:20:02.946Z,6.40
2019-02-23T05:22:30.835Z,6.40
2019-02-23T05:24:58.619Z,6.00
2019-02-23T05:27:26.626Z,6.00
2019-02-23T05:29:54.582Z,5.90
2019-02-23T05:32:22.503Z,6.00
2019-02-23T05:34:50.451Z,6.20
2019-02-23T05:37:18.215Z,6.20
2019-02-23T05:39:45.979Z,5.90
2019-02-23T05:42:13.962Z,6.20
2019-02-23T05:44:41.736Z,6.20
2019-02-23T05:47:09.502Z,6.30
2019-02-23T05:49:37.452Z,6.50
2019-02-23T05:52:05.273Z,6.30
2019-02-23T05:54:34.737Z,6.50
2019-02-23T05:57:02.650Z,6.00
2019-02-23T05:59:30.447Z,6.20
2019-02-23T06:01:58.211Z,6.00
2019-02-23T06:04:26.103Z,6.30
2019-02-23T06:06:53.880Z,6.00
2019-02-23T06:09:21.968Z,6.10
2019-02-23T06:11:49.768Z,6.20
2019-02-23T06:14:17.722Z,6.00
2019-02-23T06:16:45.695Z,5.90
2019-02-23T06:19:13.469Z,6.00
2019-02-23T06:21:52.858Z,6.10
2019-02-23T06:24:11.126Z,6.10
2019-02-23T06:26:38.900Z,6.00
2019-02-23T06:29:06.698Z,5.70
2019-02-23T06:31:34.657Z,5.80
2019-02-23T06:34:12.490Z,5.60
2019-02-23T06:36:32.369Z,5.60
2019-02-23T06:39:00.372Z,5.40
2019-02-23T06:41:28.114Z,5.30
2019-02-23T06:43:56.061Z,5.40
2019-02-23T06:46:23.990Z,5.40
2019-02-23T06:48:52.862Z,5.30
2019-02-23T06:51:20.790Z,5.60
2019-02-23T06:53:48.593Z,5.60
2019-02-23T06:56:16.644Z,5.40
2019-02-23T06:58:44.732Z,5.40
2019-02-23T07:01:12.768Z,5.40
2019-02-23T07:03:40.728Z,5.40
2019-02-23T07:06:08.540Z,5.60
2019-02-23T07:08:36.340Z,5.30
2019-02-23T07:11:04.390Z,5.70
2019-02-23T07:13:32.357Z,5.40
2019-02-23T07:16:00.174Z,5.60
2019-02-23T07:18:28.108Z,5.60
2019-02-23T07:20:55.929Z,5.90
2019-02-23T07:23:23.851Z,5.80
2019-02-23T07:25:51.626Z,6.20
2019-02-23T07:28:19.400Z,6.30
2019-02-23T07:30:47.458Z,5.90
2019-02-23T07:33:15.255Z,5.90
2019-02-23T07:35:43.411Z,6.20
2019-02-23T07:38:11.180Z,6.10
2019-02-23T07:40:38.975Z,6.20
2019-02-23T07:43:06.916Z,6.10
2019-02-23T07:45:34.888Z,6.60
2019-02-23T07:48:02.687Z,6.70
2019-02-23T07:50:30.635Z,7.00
2019-02-23T07:53:00.391Z,6.70
2019-02-23T07:55:28.196Z,6.80
2019-02-23T07:57:56.202Z,7.00
2019-02-23T08:00:24.370Z,6.70
2019-02-23T08:02:52.184Z,7.10
2019-02-23T08:05:19.983Z,7.20
2019-02-23T08:07:47.879Z,7.30
2019-02-23T08:10:15.704Z,7.20
2019-02-23T08:12:43.727Z,7.50
2019-02-23T08:15:11.827Z,7.40
2019-02-23T08:17:39.600Z,7.30
2019-02-23T08:20:07.861Z,7.60
2019-02-23T08:22:37.542Z,7.30
2019-02-23T08:25:06.306Z,7.40
2019-02-23T08:27:34.221Z,7.50
2019-02-23T08:30:02.005Z,7.60
2019-02-23T08:32:30.253Z,7.40
2019-02-23T08:34:58.192Z,7.80
2019-02-23T08:37:27.961Z,7.80
2019-02-23T08:39:55.937Z,8.00
2019-02-23T08:42:23.912Z,8.30
2019-02-23T08:44:51.692Z,8.20
2019-02-23T08:47:19.612Z,8.30
2019-02-23T08:49:47.528Z,8.50
2019-02-23T08:52:17.108Z,8.60
2019-02-23T08:54:44.908Z,8.60
2019-02-23T08:57:12.878Z,9.00
2019-02-23T08:59:40.859Z,9.10
2019-02-23T09:02:08.755Z,9.10
2019-02-23T09:04:36.530Z,9.50
2019-02-23T09:07:04.408Z,9.40
2019-02-23T09:09:32.194Z,9.50
2019-02-23T09:12:00.126Z,9.50
2019-02-23T09:14:28.092Z,9.70
2019-02-23T09:16:56.057Z,9.80
2019-02-23T09:19:24.032Z,10.00
2019-02-23T09:21:51.927Z,10.10
2019-02-23T09:24:19.704Z,10.00
2019-02-23T09:26:47.534Z,10.20
2019-02-23T09:29:15.515Z,10.40
2019-02-23T09:31:43.293Z,10.40
2019-02-23T09:34:11.055Z,10.70
2019-02-23T09:36:39.234Z,10.40
2019-02-23T09:39:07.132Z,10.40
2019-02-23T09:41:34.929Z,11.00
2019-02-23T09:44:02.852Z,10.90
2019-02-23T09:46:30.929Z,10.80
2019-02-23T09:48:58.903Z,11.30
2019-02-23T09:51:26.870Z,11.60
2019-02-23T09:53:54.666Z,11.40
2019-02-23T09:56:22.449Z,11.40
2019-02-23T09:58:50.329Z,11.70
2019-02-23T10:01:18.231Z,12.00
2019-02-23T10:03:46.124Z,12.10
2019-02-23T10:06:13.910Z,12.30
2019-02-23T10:08:41.697Z,12.20
2019-02-23T10:11:09.603Z,12.40
2019-02-23T10:13:37.485Z,12.60
2019-02-23T10:16:05.375Z,12.60
2019-02-23T10:18:33.228Z,13.00
2019-02-23T10:21:01.002Z,12.90
2019-02-23T10:23:28.874Z,13.10
2019-02-23T10:25:56.729Z,13.00
2019-02-23T10:28:24.589Z,13.30
2019-02-23T10:30:52.381Z,13.30
2019-02-23T10:33:20.270Z,13.40
2019-02-23T10:35:48.190Z,13.50
2019-02-23T10:38:15.967Z,13.70
2019-02-23T10:40:43.845Z,14.10
2019-02-23T10:43:11.863Z,13.90
2019-02-23T10:45:39.706Z,14.10
2019-02-23T10:48:07.597Z,14.30
2019-02-23T10:50:35.380Z,14.20
2019-02-23T10:53:03.441Z,14.30
2019-02-23T10:55:31.387Z,14.70
2019-02-23T10:57:59.193Z,14.60
2019-02-23T11:00:27.348Z,14.70
2019-02-23T11:02:55.121Z,14.70
2019-02-23T11:05:23.028Z,15.00
2019-02-23T11:07:50.979Z,15.30
2019-02-23T11:10:19.673Z,15.20
2019-02-23T11:12:47.461Z,15.10
2019-02-23T11:15:16.760Z,15.10
2019-02-23T11:17:44.685Z,15.10
2019-02-23T11:20:12.578Z,15.20
2019-02-23T11:22:40.472Z,15.10
2019-02-23T11:25:08.394Z,15.20
2019-02-23T11:27:36.218Z,15.30
2019-02-23T11:30:05.527Z,15.30
2019-02-23T11:32:33.321Z,15.50
2019-02-23T11:35:01.367Z,15.70
2019-02-23T11:37:29.386Z,15.80
2019-02-23T11:39:57.257Z,15.70
2019-02-23T11:42:25.059Z,15.80
2019-02-23T11:44:52.827Z,16.10
2019-02-23T11:47:20.839Z,16.00
2019-02-23T11:49:48.942Z,16.40
2019-02-23T11:52:16.748Z,16.00
2019-02-23T11:54:44.846Z,16.60
2019-02-23T11:57:12.652Z,16.40
2019-02-23T11:59:40.441Z,16.70
2019-02-23T12:02:08.332Z,16.60
2019-02-23T12:04:36.148Z,16.50
2019-02-23T12:07:04.616Z,17.20
2019-02-23T12:09:32.422Z,17.20
2019-02-23T12:12:03.564Z,17.10
2019-02-23T12:14:31.504Z,17.20
2019-02-23T12:16:59.299Z,17.30
2019-02-23T12:19:27.298Z,17.50
2019-02-23T12:21:55.320Z,17.20
2019-02-23T12:24:24.212Z,17.10
2019-02-23T12:26:52.011Z,17.40
2019-02-23T12:29:20.068Z,17.80
2019-02-23T12:31:47.863Z,17.90
2019-02-23T12:34:15.805Z,17.60
2019-02-23T12:36:45.440Z,17.80
2019-02-23T12:39:13.419Z,18.40
2019-02-23T12:41:41.218Z,17.90
2019-02-23T12:44:09.238Z,18.60
2019-02-23T12:46:37.221Z,18.60
2019-02-23T12:49:05.034Z,18.40
2019-02-23T12:51:32.825Z,18.40
2019-02-23T12:54:00.720Z,18.70
2019-02-23T12:56:28.500Z,19.00
2019-02-23T12:58:56.468Z,19.00
2019-02-23T13:01:24.251Z,19.10
2019-02-23T13:03:52.031Z,19.10
2019-02-23T13:06:20.039Z,19.10
2019-02-23T13:09:20.138Z,19.20
2019-02-23T13:11:54.485Z,19.20
2019-02-23T13:15:01.559Z,19.10
2019-02-23T13:18:15.696Z,19.10
2019-02-23T13:21:30.775Z,19.00
2019-02-23T13:24:53.376Z,19.10
2019-02-23T13:28:01.747Z,19.10
2019-02-23T13:31:04.534Z,19.20
2019-02-23T13:34:06.431Z,18.90
2019-02-23T13:37:07.815Z,19.20
2019-02-23T13:40:23.138Z,19.50
2019-02-23T13:43:55.725Z,19.20
2019-02-23T13:47:07.441Z,19.60
2019-02-23T13:50:15.157Z,19.70
2019-02-23T13:53:46.683Z,19.60
2019-02-23T13:57:16.026Z,19.80
2019-02-23T14:04:44.385Z,19.60
2019-02-23T14:08:00.766Z,19.60
2019-02-23T14:11:40.733Z,19.70
2019-02-23T14:15:11.596Z,19.50
2019-02-23T14:18:23.077Z,19.90
2019-02-23T14:22:04.846Z,19.90
2019-02-23T14:25:33.316Z,19.80
2019-02-23T14:28:47.835Z,19.80
2019-02-23T14:35:55.409Z,19.80
2019-02-23T14:39:49.121Z,19.60
2019-02-23T14:43:04.660Z,19.60
2019-02-23T14:46:23.454Z,19.80
2019-02-23T14:49:44.398Z,19.70
2019-02-23T14:53:39.944Z,19.70
2019-02-23T15:00:44.580Z,19.70
2019-02-23T15:04:00.518Z,19.60
2019-02-23T15:07:32.808Z,19.80
2019-02-23T15:10:41.204Z,19.50
2019-02-23T15:13:55.904Z,19.30
2019-02-23T15:17:17.546Z,19.00
2019-02-23T15:20:39.715Z,18.50
2019-02-23T15:23:34.007Z,18.50
2019-02-23T15:26:48.131Z,17.70
2019-02-23T15:33:46.719Z,18.00
2019-02-23T15:37:20.892Z,17.30
2019-02-23T15:40:23.254Z,17.10
2019-02-23T15:44:02.023Z,16.80
2019-02-23T15:47:15.104Z,16.20
2019-02-23T15:49:43.055Z,16.50
2019-02-23T15:52:11.101Z,15.80
2019-02-23T15:54:39.145Z,15.60
2019-02-23T15:57:07.236Z,15.40
2019-02-23T15:59:35.273Z,15.30
2019-02-23T16:02:03.282Z,15.20
2019-02-23T16:04:31.078Z,15.20
2019-02-23T16:06:58.894Z,15.10
2019-02-23T16:09:26.893Z,14.70
2019-02-23T16:11:54.688Z,14.60
2019-02-23T16:14:22.633Z,14.80
2019-02-23T16:16:50.421Z,14.50
2019-02-23T16:19:18.212Z,14.40
2019-02-23T16:21:46.361Z,14.40
2019-02-23T16:24:14.303Z,14.10
2019-02-23T16:26:42.343Z,14.10
2019-02-23T16:29:10.276Z,13.90
2019-02-23T16:31:38.106Z,13.60
2019-02-23T16:34:07.324Z,14.30
2019-02-23T16:36:35.725Z,13.70
2019-02-23T16:39:09.036Z,13.70
2019-02-23T16:41:37.247Z,13.60
2019-02-23T16:44:05.105Z,13.30
2019-02-23T16:46:32.947Z,13.20
2019-02-23T16:49:02.386Z,13.20
2019-02-23T16:51:31.562Z,13.00
2019-02-23T16:53:59.437Z,12.50
2019-02-23T16:56:27.397Z,12.80
2019-02-23T16:58:55.389Z,12.20
2019-02-23T17:01:23.183Z,12.10
2019-02-23T17:03:51.121Z,11.60
2019-02-23T17:06:19.044Z,11.80
2019-02-23T17:08:47.008Z,11.70
2019-02-23T17:11:14.989Z,11.60
2019-02-23T17:13:43.007Z,11.20
2019-02-23T17:16:10.815Z,11.20
2019-02-23T17:18:38.671Z,11.00
2019-02-23T17:21:06.924Z,10.90
2019-02-23T17:23:34.916Z,10.70
2019-02-23T17:26:04.557Z,10.50
2019-02-23T17:28:32.820Z,10.70
2019-02-23T17:31:00.767Z,10.60
2019-02-23T17:33:28.593Z,10.50
2019-02-23T17:35:56.523Z,10.70
2019-02-23T17:38:24.488Z,10.50
2019-02-23T17:40:54.674Z,10.70
2019-02-23T17:43:22.611Z,10.20
2019-02-23T17:45:50.588Z,10.30
2019-02-23T17:48:19.666Z,10.20
2019-02-23T17:50:47.630Z,10.00
2019-02-23T17:53:15.806Z,9.90
2019-02-23T17:55:43.712Z,10.00
2019-02-23T17:58:11.756Z,10.00
2019-02-23T18:00:39.559Z,9.90
2019-02-23T18:03:07.476Z,9.80
2019-02-23T18:05:35.479Z,9.80
2019-02-23T18:08:04.374Z,9.80
2019-02-23T18:10:32.187Z,9.80
2019-02-23T18:13:00.114Z,9.70
2019-02-23T18:15:28.074Z,9.70
2019-02-23T18:17:56.072Z,9.80
2019-02-23T18:20:26.080Z,9.20
2019-02-23T18:22:54.079Z,9.10
2019-02-23T18:25:22.029Z,8.90
2019-02-23T18:27:50.008Z,8.80
2019-02-23T18:30:17.838Z,8.90
2019-02-23T18:32:45.853Z,8.90
2019-02-23T18:35:15.139Z,8.80
2019-02-23T18:37:43.237Z,8.90
2019-02-23T18:40:11.405Z,8.80
2019-02-23T18:42:39.224Z,8.90
2019-02-23T18:45:07.372Z,8.70
2019-02-23T18:47:35.746Z,8.60
2019-02-23T18:50:03.903Z,8.30
2019-02-23T18:52:31.727Z,8.50
2019-02-23T18:54:59.983Z,8.50
2019-02-23T18:57:27.845Z,8.50
2019-02-23T18:59:56.122Z,8.50
2019-02-23T19:02:24.075Z,8.30
2019-02-23T19:04:51.883Z,8.40
2019-02-23T19:07:19.941Z,8.50
2019-02-23T19:09:47.772Z,8.30
2019-02-23T19:12:16.372Z,7.90
2019-02-23T19:14:44.202Z,8.20
2019-02-23T19:17:14.551Z,8.50
2019-02-23T19:19:43.832Z,8.50
2019-02-23T19:22:11.955Z,8.40
2019-02-23T19:24:39.760Z,8.20
2019-02-23T19:27:07.684Z,8.50
2019-02-23T19:29:35.463Z,8.50
2019-02-23T19:32:03.521Z,8.50
2019-02-23T19:34:31.390Z,8.40
2019-02-23T19:36:59.243Z,8.30
2019-02-23T19:39:27.185Z,8.50
2019-02-23T19:41:55.096Z,8.30
2019-02-23T19:44:22.930Z,8.30
2019-02-23T19:46:57.593Z,8.50
2019-02-23T19:49:25.440Z,8.20
2019-02-23T19:51:53.362Z,8.50
2019-02-23T19:54:21.354Z,8.40
2019-02-23T19:56:49.328Z,8.30
2019-02-23T19:59:20.468Z,8.30
2019-02-23T20:01:48.336Z,8.40
2019-02-23T20:04:16.421Z,7.90
2019-02-23T20:06:44.265Z,8.00
2019-02-23T20:09:13.421Z,7.80
2019-02-23T20:11:41.233Z,8.20
2019-02-23T20:14:09.030Z,8.10
2019-02-23T20:16:39.056Z,8.00
2019-02-23T20:19:06.830Z,8.10
2019-02-23T20:21:34.636Z,7.90
2019-02-23T20:24:02.567Z,7.80
2019-02-23T20:26:30.376Z,7.80
2019-02-23T20:28:58.163Z,7.80
2019-02-23T20:31:26.060Z,7.50
2019-02-23T20:33:54.064Z,7.80
2019-02-23T20:36:21.896Z,7.60
2019-02-23T20:38:49.892Z,7.40
2019-02-23T20:41:17.717Z,7.70
2019-02-23T20:43:45.588Z,7.40
2019-02-23T20:46:13.487Z,7.70
2019-02-23T20:48:41.391Z,7.50
2019-02-23T20:51:11.360Z,7.40
2019-02-23T20:53:39.349Z,7.70
2019-02-23T20:56:07.235Z,7.40
2019-02-23T20:58:35.049Z,7.50
2019-02-23T21:01:04.831Z,7.40
2019-02-23T21:03:34.420Z,7.60
2019-02-23T21:06:02.258Z,6.60
2019-02-23T21:08:30.403Z,7.00
2019-02-23T21:10:58.295Z,7.20
2019-02-23T21:13:26.349Z,7.00
2019-02-23T21:15:54.239Z,7.10
2019-02-23T21:18:22.075Z,6.70
2019-02-23T21:20:51.609Z,6.70
2019-02-23T21:23:19.719Z,6.60
2019-02-23T21:25:47.659Z,6.40
2019-02-23T21:28:15.667Z,6.60
2019-02-23T21:30:43.455Z,6.00
2019-02-23T21:33:11.431Z,6.30
2019-02-23T21:35:39.457Z,6.40
2019-02-23T21:38:07.495Z,6.30
2019-02-23T21:40:35.338Z,6.50
2019-02-23T21:43:03.157Z,6.40
2019-02-23T21:45:31.121Z,6.00
2019-02-23T21:47:58.913Z,5.90
2019-02-23T21:50:26.859Z,6.00
2019-02-23T21:52:55.040Z,6.10
2019-02-23T21:55:22.835Z,6.10
2019-02-23T21:57:50.918Z,6.00
2019-02-23T22:00:18.712Z,5.90
2019-02-23T22:02:46.501Z,5.90
2019-02-23T22:05:14.597Z,6.00
2019-02-23T22:07:42.375Z,6.30
2019-02-23T22:10:10.148Z,6.60
2019-02-23T22:12:38.111Z,6.20
2019-02-23T22:15:06.184Z,5.90
2019-02-23T22:17:34.253Z,5.70
2019-02-23T22:20:02.094Z,6.10
2019-02-23T22:22:30.993Z,5.80
2019-02-23T22:25:00.026Z,5.70
2019-02-23T22:27:31.394Z,5.70
2019-02-23T22:29:57.505Z,5.80
2019-02-23T22:32:25.486Z,5.80
2019-02-23T22:34:53.499Z,5.60
2019-02-23T22:37:21.314Z,5.70
2019-02-23T22:39:49.761Z,5.70
2019-02-23T22:42:17.583Z,5.50
2019-02-23T22:44:45.552Z,5.70
2019-02-23T22:47:13.345Z,5.90
2019-02-23T22:49:41.123Z,5.70
2019-02-23T22:52:09.097Z,5.60
2019-02-23T22:54:36.883Z,5.50
2019-02-23T22:57:04.795Z,5.70
2019-02-23T22:59:32.611Z,5.70
2019-02-23T23:02:00.381Z,5.60
2019-02-23T23:04:28.318Z,5.50
2019-02-23T23:06:56.291Z,5.70
2019-02-23T23:09:24.218Z,5.20
2019-02-23T23:11:52.002Z,6.10
2019-02-23T23:14:19.880Z,5.70
2019-02-23T23:16:47.880Z,5.60
2019-02-23T23:19:16.767Z,5.70
2019-02-23T23:21:44.536Z,5.70
2019-02-23T23:24:12.533Z,5.70
2019-02-23T23:26:40.366Z,5.50
2019-02-23T23:29:08.129Z,5.20
2019-02-23T23:31:36.129Z,5.20
2019-02-23T23:34:04.030Z,5.20
2019-02-23T23:36:31.979Z,5.50
2019-02-23T23:38:59.935Z,5.50
2019-02-23T23:41:30.304Z,5.30
2019-02-23T23:43:58.246Z,5.20
2019-02-23T23:46:26.069Z,5.30
2019-02-23T23:48:55.874Z,5.50
2019-02-23T23:51:23.805Z,5.40
2019-02-23T23:53:51.576Z,5.20
2019-02-23T23:56:19.494Z,5.20
2019-02-23T23:58:47.276Z,5.40
